Time;durP1;ratioP1;P1;durP2;ratioP2;P2;SDS_P1;SDS_P2;PMS_P1;PMS_P2;Temp;Humidity;BMP_temperature;BMP_pressure;BME280_temperature;BME280_humidity;BME280_pressure;Samples;Min_cycle;Max_cycle;Signal;HPM_P1;HPM_P2
2021/03/20 00:00:57;;;;;;;5.03;2.92;;;3.70;74.60;;;;;;4956273;28;20670;-92
2021/03/20 00:03:24;;;;;;;3.00;2.28;;;3.80;74.90;;;;;;4954063;28;20023;-91
2021/03/20 00:05:49;;;;;;;3.97;2.60;;;3.80;74.90;;;;;;4953164;28;20110;-92
2021/03/20 00:08:18;;;;;;;4.65;3.05;;;3.80;74.80;;;;;;4971196;28;20122;-92
2021/03/20 00:10:45;;;;;;;3.40;2.67;;;3.90;74.80;;;;;;4952551;28;20496;-92
2021/03/20 00:13:11;;;;;;;4.43;2.58;;;3.90;74.70;;;;;;4955637;28;20031;-91
2021/03/20 00:15:36;;;;;;;3.17;2.38;;;3.80;74.60;;;;;;4971344;28;20026;-91
2021/03/20 00:18:02;;;;;;;4.25;2.40;;;3.90;74.50;;;;;;4970461;28;20026;-93
2021/03/20 00:20:32;;;;;;;4.30;2.92;;;3.80;74.50;;;;;;4972221;28;20019;-93
2021/03/20 00:22:58;;;;;;;5.30;3.03;;;3.90;74.60;;;;;;4971869;28;20058;-92
2021/03/20 00:25:24;;;;;;;4.78;2.78;;;3.80;74.70;;;;;;4955822;28;20078;-96
2021/03/20 00:27:52;;;;;;;3.70;2.65;;;3.80;74.60;;;;;;4973067;28;20026;-95
2021/03/20 00:30:19;;;;;;;3.72;2.58;;;3.90;74.60;;;;;;4973612;28;20122;-95
2021/03/20 00:32:47;;;;;;;3.83;2.90;;;4.00;74.50;;;;;;4973157;28;20041;-96
2021/03/20 00:35:17;;;;;;;3.70;2.97;;;3.90;74.40;;;;;;4955890;28;20465;-95
2021/03/20 00:37:43;;;;;;;4.88;2.90;;;3.90;74.30;;;;;;4972297;28;20026;-93
2021/03/20 00:40:14;;;;;;;4.65;2.70;;;3.90;74.20;;;;;;4972078;28;20105;-94
2021/03/20 00:42:39;;;;;;;3.65;2.92;;;3.90;74.20;;;;;;4957503;28;20050;-95
2021/03/20 00:45:07;;;;;;;5.43;3.47;;;3.90;74.20;;;;;;4971522;28;20054;-91
2021/03/20 00:47:33;;;;;;;3.63;3.00;;;3.90;74.40;;;;;;4970984;28;20384;-92
2021/03/20 00:49:58;;;;;;;5.30;3.10;;;3.90;74.50;;;;;;4971374;28;20031;-91
2021/03/20 00:52:24;;;;;;;6.15;3.47;;;3.80;74.40;;;;;;4954350;28;20074;-91
2021/03/20 00:54:50;;;;;;;4.53;3.00;;;3.90;74.60;;;;;;4954848;28;20031;-92
2021/03/20 00:57:15;;;;;;;4.03;2.90;;;3.70;74.60;;;;;;4972060;28;20037;-92
2021/03/20 00:59:41;;;;;;;4.57;2.97;;;3.70;74.60;;;;;;4971542;28;20252;-90
2021/03/20 01:02:07;;;;;;;3.63;2.78;;;3.70;74.60;;;;;;4974443;28;20019;-91
2021/03/20 01:04:32;;;;;;;5.38;3.00;;;3.70;74.50;;;;;;4978118;28;20050;-92
2021/03/20 01:07:05;;;;;;;3.90;2.60;;;3.60;74.50;;;;;;4958936;28;20631;-91
2021/03/20 01:09:32;;;;;;;3.67;3.00;;;3.60;74.60;;;;;;4976202;28;20045;-94
2021/03/20 01:11:58;;;;;;;4.60;3.10;;;3.60;74.70;;;;;;4959903;28;20023;-94
2021/03/20 01:14:23;;;;;;;4.68;3.20;;;3.50;74.60;;;;;;4977633;28;20093;-93
2021/03/20 01:16:49;;;;;;;5.07;3.15;;;3.50;74.70;;;;;;4992966;28;20050;-93
2021/03/20 01:19:14;;;;;;;3.45;2.95;;;3.40;74.90;;;;;;4947722;29;20015;-94
2021/03/20 01:21:40;;;;;;;4.32;2.92;;;3.40;74.90;;;;;;4957065;29;20030;-93
2021/03/20 01:24:06;;;;;;;2.88;2.45;;;3.40;74.90;;;;;;4976667;28;20022;-92
2021/03/20 01:26:32;;;;;;;4.45;3.08;;;3.40;74.80;;;;;;4976030;28;20026;-92
2021/03/20 01:28:57;;;;;;;4.53;3.15;;;3.30;74.70;;;;;;4951840;28;20041;-94
2021/03/20 01:31:23;;;;;;;4.35;3.33;;;3.30;74.80;;;;;;4978536;28;20030;-93
2021/03/20 01:33:49;;;;;;;3.00;2.70;;;3.20;74.80;;;;;;4989802;28;20022;-92
2021/03/20 01:36:14;;;;;;;3.00;2.45;;;3.20;74.80;;;;;;4976537;28;20015;-93
2021/03/20 01:38:40;;;;;;;2.95;2.38;;;3.20;74.80;;;;;;4958574;28;20133;-92
2021/03/20 01:41:11;;;;;;;3.95;2.70;;;3.20;74.80;;;;;;4976416;28;20026;-93
2021/03/20 01:43:37;;;;;;;4.07;3.08;;;3.20;74.80;;;;;;4958318;28;20501;-91
2021/03/20 01:46:25;;;;;;;5.07;3.10;;;3.20;74.80;;;;;;4958939;28;20062;-91
2021/03/20 01:48:50;;;;;;;3.30;2.55;;;3.20;74.90;;;;;;4979446;28;20038;-91
2021/03/20 01:51:16;;;;;;;3.55;2.80;;;3.10;74.80;;;;;;4995774;28;20026;-91
2021/03/20 01:53:48;;;;;;;4.28;2.60;;;3.10;74.90;;;;;;4988658;28;20034;-92
2021/03/20 01:56:20;;;;;;;3.70;2.83;;;3.10;74.90;;;;;;4959353;28;20051;-92
2021/03/20 01:58:48;;;;;;;4.57;2.70;;;3.10;74.90;;;;;;4975921;28;20114;-93
2021/03/20 02:01:16;;;;;;;4.22;2.70;;;3.10;74.80;;;;;;4976034;28;20033;-92
2021/03/20 02:03:42;;;;;;;2.70;2.40;;;3.10;74.80;;;;;;4976415;28;20042;-91
2021/03/20 02:06:09;;;;;;;2.72;2.10;;;3.00;75.30;;;;;;4958887;28;20019;-91
2021/03/20 02:08:40;;;;;;;4.03;2.65;;;3.10;74.70;;;;;;4958304;28;20042;-91
2021/03/20 02:11:36;;;;;;;3.67;2.58;;;3.00;74.50;;;;;;4975249;28;20022;-91
2021/03/20 02:14:22;;;;;;;4.13;2.70;;;3.00;74.40;;;;;;4988862;28;20038;-90
2021/03/20 02:16:57;;;;;;;4.47;2.80;;;3.00;74.30;;;;;;4987746;28;20050;-91
2021/03/20 02:19:44;;;;;;;4.53;2.80;;;3.00;74.30;;;;;;4955715;29;20466;-91
2021/03/20 02:22:29;;;;;;;3.15;2.65;;;3.00;74.40;;;;;;4962355;28;20035;-91
2021/03/20 02:25:19;;;;;;;3.17;2.53;;;2.90;74.30;;;;;;4975582;28;20043;-93
2021/03/20 02:28:13;;;;;;;4.22;2.90;;;2.90;74.40;;;;;;4980702;28;20030;-95
2021/03/20 02:30:45;;;;;;;3.88;2.70;;;2.90;74.50;;;;;;4975512;28;20131;-94
2021/03/20 02:33:25;;;;;;;3.75;3.05;;;2.80;74.50;;;;;;4975564;28;20027;-93
2021/03/20 02:36:08;;;;;;;3.42;2.67;;;2.80;74.60;;;;;;4975571;28;20037;-95
2021/03/20 02:38:54;;;;;;;3.33;2.40;;;2.70;74.70;;;;;;4975012;28;20022;-93
2021/03/20 02:41:41;;;;;;;3.92;2.53;;;2.80;74.70;;;;;;4975139;28;20487;-93
2021/03/20 02:44:15;;;;;;;3.05;2.53;;;2.80;74.60;;;;;;4988969;28;20041;-91
2021/03/20 02:46:57;;;;;;;4.65;2.90;;;2.80;74.50;;;;;;4975105;28;20065;-91
2021/03/20 02:49:44;;;;;;;2.72;2.40;;;2.80;74.40;;;;;;4982029;28;20041;-92
2021/03/20 02:52:35;;;;;;;3.65;2.80;;;2.80;74.30;;;;;;4960813;28;20050;-93
2021/03/20 02:55:17;;;;;;;3.70;2.63;;;2.80;74.30;;;;;;4981000;28;20094;-92
2021/03/20 02:58:01;;;;;;;4.07;2.72;;;2.70;74.20;;;;;;4968869;28;20512;-92
2021/03/20 03:00:33;;;;;;;4.13;3.05;;;2.70;74.20;;;;;;4986031;28;20050;-93
2021/03/20 03:03:01;;;;;;;2.78;2.35;;;2.70;74.30;;;;;;4984832;28;20118;-94
2021/03/20 03:05:30;;;;;;;3.70;3.05;;;2.70;74.30;;;;;;4976856;28;20019;-92
2021/03/20 03:08:02;;;;;;;3.83;2.50;;;2.60;74.40;;;;;;4975834;28;20042;-92
2021/03/20 03:10:34;;;;;;;3.60;2.65;;;2.60;74.60;;;;;;4987237;28;20030;-91
2021/03/20 03:13:10;;;;;;;4.20;3.05;;;2.60;74.60;;;;;;4993640;28;20065;-91
2021/03/20 03:15:41;;;;;;;2.97;2.50;;;2.60;74.60;;;;;;4980102;28;20031;-90
2021/03/20 03:18:18;;;;;;;4.53;2.78;;;2.50;74.60;;;;;;4976009;28;20054;-90
2021/03/20 03:20:50;;;;;;;4.63;3.03;;;2.50;74.60;;;;;;4985808;28;20027;-90
2021/03/20 03:23:22;;;;;;;4.55;3.28;;;2.50;74.70;;;;;;4990511;28;20110;-92
2021/03/20 03:25:54;;;;;;;4.40;3.20;;;2.50;74.60;;;;;;4978704;28;20082;-93
2021/03/20 03:28:24;;;;;;;3.03;2.67;;;2.50;74.70;;;;;;4961402;28;20093;-91
2021/03/20 03:30:49;;;;;;;3.70;2.90;;;2.50;74.70;;;;;;4974180;28;20027;-91
2021/03/20 03:33:33;;;;;;;3.92;2.90;;;2.50;74.80;;;;;;4989646;28;20386;-92
2021/03/20 03:36:04;;;;;;;4.72;2.97;;;2.50;74.80;;;;;;4993643;28;20028;-91
2021/03/20 03:38:44;;;;;;;3.92;2.70;;;2.50;74.60;;;;;;4993094;28;20030;-91
2021/03/20 03:41:16;;;;;;;3.22;2.67;;;2.50;74.60;;;;;;4993611;28;20417;-92
2021/03/20 03:43:43;;;;;;;3.70;2.57;;;2.50;74.60;;;;;;4981572;28;20031;-91
2021/03/20 03:46:09;;;;;;;3.90;2.40;;;2.50;74.50;;;;;;4974117;28;20295;-92
2021/03/20 03:48:35;;;;;;;3.35;2.65;;;2.50;74.40;;;;;;4983547;28;20035;-93
2021/03/20 03:51:30;;;;;;;4.20;3.05;;;2.50;74.40;;;;;;4993192;28;20437;-92
2021/03/20 03:53:58;;;;;;;3.67;2.80;;;2.40;74.30;;;;;;4976757;28;20038;-92
2021/03/20 03:56:43;;;;;;;4.60;3.10;;;2.40;74.30;;;;;;4960663;28;20529;-93
2021/03/20 03:59:19;;;;;;;4.30;3.08;;;2.40;74.30;;;;;;4955174;28;20062;-92
2021/03/20 04:02:03;;;;;;;4.07;2.60;;;2.40;74.40;;;;;;4974279;28;20495;-93
2021/03/20 04:04:49;;;;;;;4.65;2.80;;;2.40;74.40;;;;;;4974503;28;20026;-93
2021/03/20 04:07:43;;;;;;;3.00;2.50;;;2.40;74.30;;;;;;4974342;28;20030;-93
2021/03/20 04:10:31;;;;;;;4.47;3.20;;;2.40;74.20;;;;;;4956915;28;20371;-93
2021/03/20 04:12:59;;;;;;;3.53;2.80;;;2.40;74.20;;;;;;4968448;28;20485;-93
2021/03/20 04:15:47;;;;;;;3.95;2.70;;;2.30;74.10;;;;;;4973656;28;20508;-93
2021/03/20 04:18:30;;;;;;;3.30;2.60;;;2.30;74.10;;;;;;4970167;28;20027;-92
2021/03/20 04:21:31;;;;;;;3.38;2.55;;;2.30;74.10;;;;;;4947980;29;20114;-91
2021/03/20 04:24:09;;;;;;;3.22;2.58;;;2.20;74.00;;;;;;4963113;28;20027;-93
2021/03/20 04:26:43;;;;;;;2.60;2.30;;;2.20;74.00;;;;;;4956784;28;20146;-90
2021/03/20 04:29:34;;;;;;;3.22;2.67;;;2.20;74.00;;;;;;4980217;28;20046;-92
2021/03/20 04:32:06;;;;;;;4.38;2.88;;;2.20;74.00;;;;;;4990931;28;20027;-91
2021/03/20 04:35:12;;;;;;;3.55;2.70;;;2.10;74.00;;;;;;4983696;28;20058;-93
2021/03/20 04:37:42;;;;;;;4.93;3.20;;;2.10;74.00;;;;;;4939830;29;20043;-90
2021/03/20 04:40:19;;;;;;;3.17;2.63;;;2.10;73.90;;;;;;4958527;28;20019;-90
2021/03/20 04:42:46;;;;;;;3.88;2.65;;;2.10;74.10;;;;;;4996778;28;20053;-94
2021/03/20 04:45:31;;;;;;;5.32;2.63;;;2.00;74.00;;;;;;4997442;28;20031;-93
2021/03/20 04:48:02;;;;;;;4.28;2.85;;;2.00;74.10;;;;;;4981318;28;20023;-92
2021/03/20 04:50:28;;;;;;;4.28;2.60;;;2.00;74.10;;;;;;4960558;28;20045;-93
2021/03/20 04:52:57;;;;;;;4.28;2.92;;;2.00;74.20;;;;;;4960209;28;20026;-92
2021/03/20 04:55:23;;;;;;;2.60;2.13;;;2.00;74.10;;;;;;4977467;28;20053;-92
2021/03/20 04:58:07;;;;;;;3.47;2.67;;;2.00;74.70;;;;;;4976837;28;20038;-92
2021/03/20 05:00:48;;;;;;;3.90;2.70;;;2.00;73.90;;;;;;4974244;28;20033;-92
2021/03/20 05:03:34;;;;;;;4.28;2.97;;;2.00;73.80;;;;;;4977832;28;20022;-91
2021/03/20 05:06:06;;;;;;;3.00;2.42;;;2.00;73.70;;;;;;4977274;28;20046;-91
2021/03/20 05:08:44;;;;;;;3.05;2.50;;;2.00;73.60;;;;;;4964019;28;20143;-91
2021/03/20 05:11:12;;;;;;;3.95;2.40;;;2.00;73.60;;;;;;4989455;28;20106;-91
2021/03/20 05:14:00;;;;;;;3.80;3.28;;;2.00;74.20;;;;;;4976656;28;20055;-92
2021/03/20 05:16:34;;;;;;;4.15;2.88;;;2.00;73.50;;;;;;4991915;28;20022;-92
2021/03/20 05:19:00;;;;;;;4.57;2.88;;;2.00;74.10;;;;;;4976512;28;20031;-92
2021/03/20 05:21:28;;;;;;;3.28;2.58;;;2.00;74.10;;;;;;4976270;28;20026;-91
2021/03/20 05:23:55;;;;;;;3.92;2.80;;;2.00;73.50;;;;;;4980447;28;20036;-91
2021/03/20 05:26:21;;;;;;;3.40;2.10;;;2.00;73.50;;;;;;4995927;28;20458;-91
2021/03/20 05:28:47;;;;;;;4.63;2.78;;;2.00;73.50;;;;;;4936098;29;20126;-91
2021/03/20 05:31:13;;;;;;;4.22;2.28;;;2.10;73.50;;;;;;4952766;29;20377;-90
2021/03/20 05:33:41;;;;;;;3.53;2.55;;;2.10;73.40;;;;;;4957394;29;20039;-91
2021/03/20 05:36:07;;;;;;;2.90;2.50;;;2.10;73.30;;;;;;4986076;28;20073;-91
2021/03/20 05:38:34;;;;;;;3.42;2.70;;;2.10;73.30;;;;;;4957062;28;20027;-90
2021/03/20 05:41:31;;;;;;;4.10;3.13;;;2.10;73.20;;;;;;4958750;28;20026;-90
2021/03/20 05:44:17;;;;;;;4.25;3.08;;;2.10;73.20;;;;;;4975925;28;20018;-91
2021/03/20 05:47:04;;;;;;;4.05;2.70;;;2.00;73.20;;;;;;4994393;28;20038;-90
2021/03/20 05:50:05;;;;;;;3.70;2.60;;;2.00;73.20;;;;;;4978945;28;20054;-90
2021/03/20 05:53:02;;;;;;;3.45;2.60;;;2.10;73.20;;;;;;4956188;29;20107;-90
2021/03/20 05:55:43;;;;;;;3.20;2.60;;;2.10;73.20;;;;;;4956855;29;20047;-89
2021/03/20 05:58:41;;;;;;;3.63;2.90;;;2.10;73.10;;;;;;4965089;28;20027;-90
2021/03/20 06:01:13;;;;;;;3.72;3.03;;;2.10;73.20;;;;;;4958837;28;20038;-90
2021/03/20 06:04:15;;;;;;;3.72;2.95;;;2.10;73.10;;;;;;4958409;28;20054;-91
2021/03/20 06:07:09;;;;;;;3.80;2.80;;;2.10;73.00;;;;;;4975723;28;20652;-91
2021/03/20 06:10:05;;;;;;;3.50;2.85;;;2.20;73.00;;;;;;4974292;28;20308;-93
2021/03/20 06:12:56;;;;;;;4.38;2.60;;;2.20;73.00;;;;;;4957367;28;20027;-90
2021/03/20 06:15:49;;;;;;;3.60;2.67;;;2.20;72.90;;;;;;4975368;28;20038;-90
2021/03/20 06:18:37;;;;;;;4.45;3.08;;;2.30;73.10;;;;;;4957462;28;20065;-90
2021/03/20 06:21:26;;;;;;;4.10;2.80;;;2.40;73.40;;;;;;4975190;28;20370;-90
2021/03/20 06:24:17;;;;;;;3.50;2.95;;;2.60;73.20;;;;;;4975205;28;20031;-91
2021/03/20 06:26:46;;;;;;;3.72;2.83;;;2.80;72.40;;;;;;4986137;28;20030;-90
2021/03/20 06:29:14;;;;;;;3.13;2.67;;;3.00;71.70;;;;;;4955724;29;20221;-90
2021/03/20 06:31:46;;;;;;;4.82;2.75;;;3.10;71.30;;;;;;4955766;29;20030;-91
2021/03/20 06:34:34;;;;;;;4.00;3.07;;;3.10;71.10;;;;;;4972834;28;20030;-90
2021/03/20 06:37:08;;;;;;;3.83;2.50;;;3.20;71.10;;;;;;4943395;29;20358;-90
2021/03/20 06:39:54;;;;;;;3.78;2.40;;;3.20;71.10;;;;;;4975693;28;20058;-90
2021/03/20 06:42:29;;;;;;;4.32;2.67;;;3.20;71.10;;;;;;4935068;29;20031;-90
2021/03/20 06:45:03;;;;;;;5.65;3.50;;;3.20;71.00;;;;;;4948503;29;20035;-92
2021/03/20 06:47:31;;;;;;;3.15;2.30;;;3.20;71.00;;;;;;4942928;28;20015;-91
2021/03/20 06:50:19;;;;;;;3.78;2.33;;;3.30;71.00;;;;;;4974409;28;20512;-92
2021/03/20 06:52:51;;;;;;;2.40;2.20;;;3.30;71.00;;;;;;4974608;28;20022;-91
2021/03/20 06:55:25;;;;;;;3.35;2.33;;;3.40;71.50;;;;;;4974611;28;20034;-93
2021/03/20 06:57:51;;;;;;;3.22;2.17;;;3.50;70.70;;;;;;4974154;28;20070;-92
2021/03/20 07:00:32;;;;;;;2.50;2.30;;;3.50;70.50;;;;;;4974601;28;20034;-91
2021/03/20 07:03:13;;;;;;;2.80;2.20;;;3.60;70.50;;;;;;4971249;28;20027;-93
2021/03/20 07:05:55;;;;;;;2.45;2.08;;;3.70;70.40;;;;;;4974886;28;20030;-93
2021/03/20 07:08:38;;;;;;;2.65;1.95;;;3.70;70.90;;;;;;4974718;28;20042;-91
2021/03/20 07:11:19;;;;;;;3.08;1.77;;;3.70;70.20;;;;;;4974642;28;20031;-90
2021/03/20 07:13:46;;;;;;;2.63;1.70;;;3.90;70.20;;;;;;4938104;29;20043;-91
2021/03/20 07:16:16;;;;;;;3.00;1.90;;;4.00;70.00;;;;;;4954639;29;20027;-90
2021/03/20 07:18:43;;;;;;;2.00;1.80;;;4.10;69.60;;;;;;4968113;28;20166;-91
2021/03/20 07:21:19;;;;;;;1.90;1.60;;;4.20;69.20;;;;;;4956956;28;20031;-92
2021/03/20 07:24:12;;;;;;;3.03;1.70;;;4.30;68.70;;;;;;4961930;28;20026;-92
2021/03/20 07:26:57;;;;;;;1.65;1.55;;;4.40;68.40;;;;;;4960998;28;20500;-93
2021/03/20 07:29:48;;;;;;;1.77;1.40;;;4.40;68.10;;;;;;4973976;28;20043;-88
2021/03/20 07:32:24;;;;;;;1.77;1.35;;;4.50;67.70;;;;;;4974482;28;20031;-92
2021/03/20 07:34:54;;;;;;;2.08;1.42;;;4.60;67.40;;;;;;4974222;28;20030;-92
2021/03/20 07:37:20;;;;;;;2.10;1.67;;;4.60;67.00;;;;;;4986938;28;20026;-94
2021/03/20 07:39:57;;;;;;;2.40;1.67;;;4.80;66.20;;;;;;4994012;28;20071;-90
2021/03/20 07:42:24;;;;;;;2.67;1.48;;;4.90;65.90;;;;;;4982714;28;20011;-96
2021/03/20 07:45:06;;;;;;;2.08;1.50;;;4.90;65.60;;;;;;4989328;28;20066;-95
2021/03/20 07:47:41;;;;;;;2.00;1.63;;;5.00;65.00;;;;;;4974653;28;20039;-94
2021/03/20 07:50:19;;;;;;;2.45;1.70;;;5.10;65.00;;;;;;4959641;28;20039;-96
2021/03/20 07:53:12;;;;;;;3.83;2.60;;;5.20;65.00;;;;;;4952482;28;20034;-85
2021/03/20 07:55:56;;;;;;;;;;;5.20;62.60;;;;;;4964222;28;20429;-89
2021/03/20 07:58:27;;;;;;;4.47;2.60;;;5.30;62.90;;;;;;4961145;28;19917;-90
2021/03/20 08:00:58;;;;;;;2.70;2.33;;;5.30;62.90;;;;;;4968646;28;20620;-89
2021/03/20 08:03:33;;;;;;;3.17;2.35;;;5.40;63.60;;;;;;4955038;28;20023;-88
2021/03/20 08:06:21;;;;;;;4.30;2.58;;;5.50;63.00;;;;;;4969395;28;20022;-88
2021/03/20 08:08:47;;;;;;;2.28;1.95;;;5.60;62.90;;;;;;4968439;28;20065;-88
2021/03/20 08:11:30;;;;;;;2.67;1.92;;;5.70;62.80;;;;;;4972457;28;20039;-89
2021/03/20 08:14:09;;;;;;;3.17;2.00;;;5.90;62.10;;;;;;4957164;28;20077;-91
2021/03/20 08:16:35;;;;;;;3.92;2.80;;;6.00;61.90;;;;;;4957087;28;20019;-88
2021/03/20 08:19:00;;;;;;;5.63;2.65;;;6.20;61.20;;;;;;4952793;28;20113;-88
2021/03/20 08:21:26;;;;;;;3.92;2.60;;;6.10;60.30;;;;;;4955633;28;20424;-88
2021/03/20 08:24:16;;;;;;;1.95;1.75;;;6.10;59.90;;;;;;4975029;28;20081;-88
2021/03/20 08:27:03;;;;;;;4.00;2.50;;;6.20;60.10;;;;;;4971422;28;20062;-88
2021/03/20 08:30:01;;;;;;;1.83;1.48;;;6.40;59.40;;;;;;4975566;28;20034;-88
2021/03/20 08:32:56;;;;;;;3.20;1.75;;;6.40;59.10;;;;;;4973824;28;20532;-89
2021/03/20 08:35:24;;;;;;;1.40;1.30;;;6.40;59.00;;;;;;4974071;28;20030;-89
2021/03/20 08:38:33;;;;;;;2.78;1.90;;;6.50;59.00;;;;;;4976854;28;20413;-88
2021/03/20 08:41:01;;;;;;;2.60;1.80;;;6.50;58.80;;;;;;4955836;28;20065;-88
2021/03/20 08:43:48;;;;;;;3.40;1.98;;;6.50;58.80;;;;;;4956662;28;20050;-88
2021/03/20 08:46:37;;;;;;;3.30;1.80;;;6.60;58.60;;;;;;4957630;28;20114;-88
2021/03/20 08:49:46;;;;;;;2.30;1.60;;;6.60;58.40;;;;;;4985119;28;20034;-87
2021/03/20 08:52:38;;;;;;;2.33;1.90;;;6.70;58.30;;;;;;4968218;28;20198;-89
2021/03/20 08:55:16;;;;;;;3.78;2.42;;;6.70;58.10;;;;;;4979411;28;20551;-88
2021/03/20 08:58:03;;;;;;;3.47;2.15;;;6.70;57.90;;;;;;4967158;28;20032;-87
2021/03/20 09:00:35;;;;;;;2.15;1.85;;;6.80;58.10;;;;;;4959275;28;20489;-85
2021/03/20 09:03:08;;;;;;;5.63;2.60;;;6.90;58.30;;;;;;4970289;28;20053;-85
2021/03/20 09:05:38;;;;;;;2.75;2.40;;;6.80;57.60;;;;;;4968507;28;20026;-85
2021/03/20 09:08:16;;;;;;;2.95;2.20;;;6.90;57.70;;;;;;4981395;28;20390;-86
2021/03/20 09:11:01;;;;;;;2.38;1.80;;;7.00;57.70;;;;;;4988867;28;20059;-86
2021/03/20 09:13:43;;;;;;;2.20;1.70;;;7.00;57.20;;;;;;4983290;28;20080;-86
2021/03/20 09:16:39;;;;;;;2.67;2.10;;;7.00;56.80;;;;;;4974096;28;20034;-89
2021/03/20 09:19:08;;;;;;;3.85;2.30;;;6.90;56.00;;;;;;4970934;28;20030;-88
2021/03/20 09:21:37;;;;;;;2.72;2.13;;;6.90;56.50;;;;;;4969946;28;20417;-86
2021/03/20 09:24:13;;;;;;;3.33;1.98;;;6.90;56.40;;;;;;4966934;28;20708;-86
2021/03/20 09:26:50;;;;;;;1.90;1.70;;;6.90;56.80;;;;;;4973260;28;20121;-84
2021/03/20 09:29:21;;;;;;;3.70;2.10;;;6.90;57.00;;;;;;4958185;28;20034;-85
2021/03/20 09:31:55;;;;;;;2.08;1.75;;;6.90;57.10;;;;;;4971066;28;20061;-87
2021/03/20 09:34:30;;;;;;;2.83;2.00;;;6.90;56.80;;;;;;4951755;28;20034;-88
2021/03/20 09:36:57;;;;;;;4.10;2.20;;;6.90;56.60;;;;;;4974214;28;20034;-85
2021/03/20 09:39:45;;;;;;;2.00;1.80;;;6.90;56.50;;;;;;4973472;28;20053;-85
2021/03/20 09:42:29;;;;;;;2.97;2.30;;;6.90;57.20;;;;;;4961970;28;20039;-85
2021/03/20 09:44:59;;;;;;;3.13;2.10;;;6.90;56.50;;;;;;4937010;28;20371;-84
2021/03/20 09:47:33;;;;;;;3.15;2.00;;;7.00;56.50;;;;;;4953818;28;20663;-85
2021/03/20 09:50:02;;;;;;;3.10;2.45;;;7.00;56.20;;;;;;4955801;28;20117;-85
2021/03/20 09:52:41;;;;;;;2.63;2.20;;;7.00;54.90;;;;;;4972964;28;20073;-85
2021/03/20 09:55:25;;;;;;;2.33;2.00;;;7.00;55.50;;;;;;4958688;28;20099;-88
2021/03/20 09:57:52;;;;;;;3.88;2.95;;;7.00;54.90;;;;;;4973721;28;20038;-87
2021/03/20 10:00:52;;;;;;;3.72;2.50;;;7.00;54.40;;;;;;4974990;28;20038;-89
2021/03/20 10:03:38;;;;;;;4.05;2.90;;;7.10;54.80;;;;;;4965929;28;20085;-85
2021/03/20 10:06:27;;;;;;;3.80;2.67;;;7.10;53.80;;;;;;4952791;28;20026;-87
2021/03/20 10:09:07;;;;;;;2.65;2.08;;;7.00;53.40;;;;;;4968690;28;20036;-87
2021/03/20 10:11:37;;;;;;;2.35;1.90;;;7.10;54.10;;;;;;4970404;28;20034;-87
2021/03/20 10:14:26;;;;;;;2.15;1.60;;;7.30;54.60;;;;;;4970065;28;20035;-89
2021/03/20 10:17:14;;;;;;;2.78;1.98;;;7.40;55.10;;;;;;4975348;28;20384;-89
2021/03/20 10:20:18;;;;;;;1.92;1.60;;;7.40;54.50;;;;;;4973665;28;20034;-89
2021/03/20 10:23:08;;;;;;;2.10;1.83;;;7.60;54.80;;;;;;4933987;28;20078;-89
2021/03/20 10:25:35;;;;;;;1.95;1.70;;;7.60;54.50;;;;;;4954257;28;20026;-87
2021/03/20 10:28:04;;;;;;;2.58;2.30;;;7.70;54.50;;;;;;4986681;28;20397;-89
2021/03/20 10:30:33;;;;;;;2.22;1.90;;;7.70;53.90;;;;;;4990432;28;20034;-89
2021/03/20 10:33:21;;;;;;;2.38;2.17;;;7.70;53.90;;;;;;4955708;28;20516;-89
2021/03/20 10:35:49;;;;;;;2.58;2.00;;;7.80;53.30;;;;;;4974100;28;20042;-90
2021/03/20 10:38:25;;;;;;;2.97;2.17;;;7.80;53.90;;;;;;4956888;28;20019;-89
2021/03/20 10:41:06;;;;;;;2.92;2.20;;;7.80;53.50;;;;;;4952685;28;20031;-90
2021/03/20 10:43:44;;;;;;;3.03;1.70;;;7.90;53.30;;;;;;4970800;28;20477;-90
2021/03/20 10:46:24;;;;;;;2.65;2.40;;;8.00;53.50;;;;;;4975250;28;20046;-87
2021/03/20 10:48:54;;;;;;;2.78;1.80;;;8.00;52.80;;;;;;4973249;28;20031;-86
2021/03/20 10:51:21;;;;;;;1.90;1.67;;;8.10;53.30;;;;;;4959458;28;20085;-86
2021/03/20 10:53:51;;;;;;;2.92;1.90;;;8.20;53.50;;;;;;4956272;28;20121;-88
2021/03/20 10:56:25;;;;;;;2.95;1.63;;;8.30;53.20;;;;;;4954130;28;20034;-89
2021/03/20 10:58:51;;;;;;;2.90;1.83;;;8.30;53.30;;;;;;4949945;28;20031;-88
2021/03/20 11:01:30;;;;;;;3.10;2.40;;;8.40;53.00;;;;;;4964026;28;20101;-87
2021/03/20 11:03:55;;;;;;;2.28;1.70;;;8.50;52.90;;;;;;4949896;28;20053;-86
2021/03/20 11:06:23;;;;;;;2.90;2.50;;;8.60;53.10;;;;;;4977342;28;20062;-86
2021/03/20 11:09:02;;;;;;;3.28;2.45;;;8.60;52.20;;;;;;4977489;28;20031;-89
2021/03/20 11:11:37;;;;;;;2.70;2.28;;;8.70;52.00;;;;;;4968323;28;20110;-87
2021/03/20 11:14:03;;;;;;;3.17;1.80;;;8.70;52.50;;;;;;4971777;28;20101;-87
2021/03/20 11:16:29;;;;;;;4.53;2.75;;;8.80;52.40;;;;;;4980061;28;20029;-87
2021/03/20 11:19:04;;;;;;;3.30;2.33;;;8.80;52.20;;;;;;4965308;28;20038;-88
2021/03/20 11:21:35;;;;;;;3.05;2.63;;;8.70;52.20;;;;;;4983007;28;20069;-87
2021/03/20 11:24:26;;;;;;;3.28;2.50;;;8.70;52.10;;;;;;4986304;28;20053;-87
2021/03/20 11:26:53;;;;;;;3.38;2.10;;;8.80;52.40;;;;;;4952452;28;20045;-86
2021/03/20 11:29:28;;;;;;;3.38;2.72;;;8.80;52.70;;;;;;4986061;28;20062;-87
2021/03/20 11:32:01;;;;;;;5.97;3.60;;;8.90;53.10;;;;;;4978036;28;20542;-86
2021/03/20 11:34:38;;;;;;;4.63;3.20;;;9.00;51.70;;;;;;4970226;28;20034;-86
2021/03/20 11:37:09;;;;;;;4.18;2.90;;;8.90;51.40;;;;;;4981366;28;20046;-87
2021/03/20 11:39:35;;;;;;;4.43;3.22;;;8.90;51.50;;;;;;4970870;28;20089;-87
2021/03/20 11:42:09;;;;;;;4.03;3.30;;;8.80;51.30;;;;;;4980613;28;20022;-86
2021/03/20 11:44:42;;;;;;;5.60;3.10;;;8.90;51.40;;;;;;4982588;28;20029;-86
2021/03/20 11:47:20;;;;;;;3.67;2.65;;;9.00;51.70;;;;;;4973440;28;20461;-87
2021/03/20 11:49:50;;;;;;;3.25;2.72;;;9.10;51.50;;;;;;4952742;28;20094;-86
2021/03/20 11:52:19;;;;;;;3.45;2.50;;;9.30;51.50;;;;;;4984620;28;20027;-89
2021/03/20 11:54:45;;;;;;;3.50;2.95;;;9.40;51.30;;;;;;4980124;28;20031;-87
2021/03/20 11:57:36;;;;;;;4.45;2.92;;;9.50;51.00;;;;;;4982546;28;20077;-85
2021/03/20 12:00:33;;;;;;;4.05;2.83;;;9.60;50.50;;;;;;4960697;28;20449;-86
2021/03/20 12:03:01;;;;;;;3.60;2.40;;;9.70;50.20;;;;;;4961215;28;20114;-86
2021/03/20 12:05:32;;;;;;;3.90;2.70;;;9.80;50.30;;;;;;4981216;28;20586;-85
2021/03/20 12:08:25;;;;;;;2.75;2.20;;;9.90;49.80;;;;;;4972028;28;20090;-85
2021/03/20 12:10:54;;;;;;;2.80;2.05;;;10.10;49.90;;;;;;4960325;28;20489;-85
2021/03/20 12:13:40;;;;;;;2.42;2.00;;;10.20;49.50;;;;;;4982679;28;20582;-85
2021/03/20 12:16:06;;;;;;;2.70;2.40;;;10.20;49.40;;;;;;4977634;28;20079;-85
2021/03/20 12:18:33;;;;;;;2.90;2.50;;;10.40;49.20;;;;;;4980476;28;20037;-85
2021/03/20 12:21:06;;;;;;;2.47;2.20;;;10.40;49.30;;;;;;4960552;28;20366;-85
2021/03/20 12:23:34;;;;;;;2.53;2.33;;;10.50;49.10;;;;;;4965172;28;20031;-85
2021/03/20 12:26:00;;;;;;;3.92;2.50;;;10.50;48.70;;;;;;4977711;28;20381;-85
2021/03/20 12:28:43;;;;;;;4.75;3.25;;;10.60;48.80;;;;;;4963364;28;20030;-85
2021/03/20 12:31:20;;;;;;;3.20;2.72;;;10.60;48.20;;;;;;4984081;28;20133;-85
2021/03/20 12:34:00;;;;;;;3.80;2.80;;;10.70;48.70;;;;;;4975555;28;20070;-85
2021/03/20 12:36:40;;;;;;;3.72;3.15;;;10.90;48.60;;;;;;4955297;28;20030;-85
2021/03/20 12:39:11;;;;;;;3.53;3.15;;;11.00;48.10;;;;;;4974881;28;20034;-85
2021/03/20 12:41:40;;;;;;;2.78;2.42;;;10.90;47.60;;;;;;4957146;28;20022;-85
2021/03/20 12:44:15;;;;;;;5.28;4.00;;;11.00;48.00;;;;;;4953061;28;20035;-85
2021/03/20 12:46:47;;;;;;;2.72;2.38;;;10.80;46.40;;;;;;4963244;28;20461;-87
2021/03/20 12:49:18;;;;;;;2.13;1.80;;;10.90;46.80;;;;;;4969300;28;20035;-86
2021/03/20 12:51:44;;;;;;;3.42;1.92;;;11.00;46.00;;;;;;4970238;28;20396;-86
2021/03/20 12:54:23;;;;;;;2.67;1.95;;;11.20;45.30;;;;;;4960304;28;20019;-87
2021/03/20 12:56:48;;;;;;;1.40;1.30;;;11.40;44.90;;;;;;4966506;28;20049;-85
2021/03/20 12:59:14;;;;;;;1.92;1.50;;;11.60;44.60;;;;;;4978295;28;20062;-86
2021/03/20 13:01:40;;;;;;;1.50;1.40;;;11.70;44.50;;;;;;4975426;28;20034;-87
2021/03/20 13:04:06;;;;;;;1.88;1.35;;;11.80;44.70;;;;;;4973881;28;20041;-87
2021/03/20 13:06:31;;;;;;;6.78;1.80;;;11.90;44.40;;;;;;4974366;28;20038;-86
2021/03/20 13:08:57;;;;;;;2.92;2.17;;;12.00;43.70;;;;;;4974783;28;20100;-87
2021/03/20 13:11:26;;;;;;;3.25;1.83;;;12.10;44.20;;;;;;4977391;28;20022;-86
2021/03/20 13:13:52;;;;;;;1.77;1.60;;;12.10;44.80;;;;;;4965932;28;20046;-86
2021/03/20 13:16:18;;;;;;;1.77;1.60;;;12.30;44.50;;;;;;4978454;28;20030;-88
2021/03/20 13:18:43;;;;;;;1.65;1.55;;;12.40;44.00;;;;;;4973255;28;20031;-87
2021/03/20 13:21:09;;;;;;;2.00;1.75;;;12.40;43.30;;;;;;4981414;28;20034;-87
2021/03/20 13:23:34;;;;;;;2.00;1.80;;;12.50;41.20;;;;;;4979958;28;20039;-87
2021/03/20 13:26:00;;;;;;;1.63;1.50;;;12.50;41.70;;;;;;4976792;28;20049;-88
2021/03/20 13:28:26;;;;;;;3.13;2.45;;;12.70;42.20;;;;;;4978416;28;20049;-88
2021/03/20 13:30:51;;;;;;;2.63;1.80;;;12.70;42.30;;;;;;4975923;28;20022;-86
2021/03/20 13:33:17;;;;;;;2.30;2.10;;;12.80;42.80;;;;;;4961429;28;20168;-86
2021/03/20 13:35:44;;;;;;;2.08;1.85;;;12.90;42.90;;;;;;4976106;28;20485;-86
2021/03/20 13:38:12;;;;;;;1.98;1.60;;;13.00;42.80;;;;;;4955204;28;20031;-87